Fredericksburg, TX

10:00 PM CDT on September 22, 2014 (GMT -0500)
Stehling Hill US 87 North | Change Station
CLOSE
Current Station
Personal Weather Station
Location: Fredericksburg, TX
Elevation: 1957 ft
Nearby Weather Stations

Elev 1957 ft 30.33 °N, 98.92 °W | Updated 9 seconds ago

Partly Cloudy
Partly Cloudy
74.0 °F
Feels Like 77 °F
N
0.0
Wind Variable Wind from ENE
Gusts 0.0 mph

Today
High -- | Low -- °F
--% Chance of Precip.
Yesterday
High -- | Low -- °F
Precip. -- in
7:23 AM 7:31 PM
Waning Crescent, 1% visible
Pressure 30.15 in
Visibility 10.0 miles
Clouds Scattered Clouds 4800 ft
Scattered Clouds 9000 ft
Mostly Cloudy 11000 ft
Heat Index 77 °F
Dew Point 45 °F
Humidity 35%
Rainfall 0.00 in
Snow Depth Not available.
UV 0 out of 12
Pollen 9.90 out of 12
Air Quality Not available.
Flu Activity Not available.
METAR KT82 230235Z AUTO 10004KT 10SM SCT048 SCT090 BKN110 24/19 A3015 RMK AO2 T02360190

More Conditions Fewer Conditions

Pressure 30.15 in
Visibility 10.0 miles
Clouds Scattered Clouds 4800 ft
Scattered Clouds 9000 ft
Mostly Cloudy 11000 ft
Heat Index 77 °F
Dew Point 45 °F
Humidity 35%
Rainfall 0.00 in
Snow Depth Not available.
UV 0 out of 12
Pollen 9.90 out of 12
Air Quality Not available.
Flu Activity Not available.
METAR KT82 230235Z AUTO 10004KT 10SM SCT048 SCT090 BKN110 24/19 A3015 RMK AO2 T02360190

More Conditions Fewer Conditions

Nowcast | as of 9:14 PM CDT on September 22, 2014

Through 1030 PM CDT...isolated light to moderate showers will drift southwest at 15 mph over portions of south central Texas. Rainfall amounts will be generally less than 1/10 inch. The chance of rain will decrease through midnight.

×

10-Day Weather Forecast

Almanac

Astronomy

Sep. 22, 2014 Rise Set
Actual Time 7:23 AM CDT 7:31 PM CDT
Civil Twilight 6:59 AM CDT 7:55 PM CDT
Nautical Twilight 6:31 AM CDT 8:23 PM CDT
Astronomical Twilight 6:03 AM CDT 8:51 PM CDT
Moon 5:58 AM CDT (9/22) 6:37 PM CDT (9/22)
Length of Visible Light 12h 56m
Length of Day
12h 08m
Tomorrow will be 1m 49s shorter.
Waning Crescent, 1% of the Moon is Illuminated
Today
Waning Crescent
Sep 24
New
Oct 1
First Quarter
Oct 8
Full
Oct 15
Last Quarter

Today's Extremes

State Highs State Lows

Community

WunderPhotos

Upload Photos

1,755,587 photos uploaded!

Nearby

Snow Depth

Station Depth Elevation
No new snow has been reported.

Earthquake Activity

City Distance Mag. Time & Date
No recent earthquake activity has been reported nearby.
Minimum magnitude displayed is 2.5.

Coastal Water Temperatures

Place Temperature
No Stations Reporting

Nearby Weather Stations